createdAt,value
2018-01-14T00:01:01.253Z,24.40
2018-01-14T00:03:28.842Z,24.57
2018-01-14T00:05:56.561Z,23.17
2018-01-14T00:08:24.471Z,24.13
2018-01-14T00:10:52.025Z,20.47
2018-01-14T00:13:21.099Z,25.10
2018-01-14T00:15:48.741Z,23.10
2018-01-14T00:18:16.303Z,22.10
2018-01-14T00:20:43.910Z,22.30
2018-01-14T00:23:11.485Z,23.70
2018-01-14T00:25:39.899Z,24.83
2018-01-14T00:28:07.470Z,25.27
2018-01-14T00:30:35.578Z,26.03
2018-01-14T00:33:03.119Z,23.30
2018-01-14T00:35:30.695Z,23.07
2018-01-14T00:37:58.296Z,24.30
2018-01-14T00:40:25.852Z,25.07
2018-01-14T00:42:53.762Z,26.03
2018-01-14T00:45:21.312Z,23.57
2018-01-14T00:47:48.875Z,23.63
2018-01-14T00:50:16.466Z,24.83
2018-01-14T00:52:44.690Z,23.67
2018-01-14T00:55:13.149Z,24.70
2018-01-14T00:57:40.829Z,25.00
2018-01-14T01:00:08.375Z,25.37
2018-01-14T01:02:35.948Z,27.37
2018-01-14T01:05:03.521Z,26.20
2018-01-14T01:07:31.106Z,24.13
2018-01-14T01:09:58.796Z,25.50
2018-01-14T01:12:27.445Z,28.80
2018-01-14T01:14:54.993Z,26.40
2018-01-14T01:17:22.529Z,26.17
2018-01-14T01:19:50.192Z,49.53
2018-01-14T01:22:17.737Z,27.00
2018-01-14T01:24:46.081Z,24.70
2018-01-14T01:27:13.612Z,27.30
2018-01-14T01:29:41.365Z,25.10
2018-01-14T01:32:09.088Z,25.17
2018-01-14T01:34:36.817Z,27.30
2018-01-14T01:37:04.358Z,25.17
2018-01-14T01:39:32.344Z,25.47
2018-01-14T01:41:59.877Z,28.50
2018-01-14T01:44:27.413Z,24.60
2018-01-14T01:46:55.005Z,26.80
2018-01-14T01:49:22.557Z,27.03
2018-01-14T01:51:50.276Z,27.93
2018-01-14T01:54:18.580Z,23.90
2018-01-14T01:56:46.581Z,27.63
2018-01-14T01:59:14.125Z,25.07
2018-01-14T02:01:41.677Z,26.63
2018-01-14T02:04:09.253Z,24.90
2018-01-14T02:06:36.793Z,27.50
2018-01-14T02:09:04.381Z,25.77
2018-01-14T02:11:31.921Z,27.93
2018-01-14T02:13:59.802Z,25.97
2018-01-14T02:16:27.356Z,28.10
2018-01-14T02:18:54.910Z,24.33
2018-01-14T02:21:22.517Z,28.40
2018-01-14T02:23:50.045Z,29.30
2018-01-14T02:26:17.905Z,27.57
2018-01-14T02:28:45.537Z,30.13
2018-01-14T02:31:13.076Z,27.47
2018-01-14T02:33:41.417Z,26.60
2018-01-14T02:36:08.994Z,27.17
2018-01-14T02:38:36.609Z,25.80
2018-01-14T02:41:04.153Z,24.70
2018-01-14T02:43:31.730Z,27.00
2018-01-14T02:45:59.283Z,27.53
2018-01-14T02:48:27.116Z,28.37
2018-01-14T02:50:55.437Z,27.47
2018-01-14T02:53:23.013Z,27.00
2018-01-14T02:55:50.594Z,28.77
2018-01-14T02:58:18.150Z,27.30
2018-01-14T03:00:46.649Z,27.87
2018-01-14T03:03:14.960Z,27.23
2018-01-14T03:05:42.537Z,25.87
2018-01-14T03:08:10.078Z,27.00
2018-01-14T03:10:38.066Z,26.83
2018-01-14T03:13:05.605Z,27.13
2018-01-14T03:15:33.143Z,27.80
2018-01-14T03:18:00.777Z,26.53
2018-01-14T03:20:28.318Z,25.77
2018-01-14T03:22:56.167Z,24.70
2018-01-14T03:25:23.769Z,25.20
2018-01-14T03:27:51.303Z,25.47
2018-01-14T03:30:19.133Z,26.97
2018-01-14T03:32:46.675Z,25.07
2018-01-14T03:35:14.264Z,26.03
2018-01-14T03:37:41.814Z,26.90
2018-01-14T03:40:09.394Z,26.37
2018-01-14T03:42:37.073Z,26.33
2018-01-14T03:45:04.799Z,26.10
2018-01-14T03:47:32.328Z,24.53
2018-01-14T03:49:59.912Z,24.83
2018-01-14T03:52:27.445Z,27.27
2018-01-14T03:54:55.361Z,25.17
2018-01-14T03:57:22.938Z,29.80
2018-01-14T03:59:50.501Z,26.87
2018-01-14T04:02:19.001Z,27.53
2018-01-14T04:04:46.549Z,26.57
2018-01-14T04:07:14.130Z,26.67
2018-01-14T04:09:42.459Z,25.67
2018-01-14T04:12:10.448Z,26.80
2018-01-14T04:14:38.765Z,25.97
2018-01-14T04:17:07.080Z,27.37
2018-01-14T04:19:34.688Z,24.23
2018-01-14T04:22:02.997Z,25.60
2018-01-14T04:24:30.576Z,27.50
2018-01-14T04:26:58.121Z,24.60
2018-01-14T04:29:26.132Z,25.80
2018-01-14T04:31:53.686Z,28.60
2018-01-14T04:34:21.257Z,26.17
2018-01-14T04:36:48.834Z,26.33
2018-01-14T04:39:16.367Z,25.13
2018-01-14T04:41:43.953Z,25.77
2018-01-14T04:44:11.499Z,26.87
2018-01-14T04:46:39.336Z,26.97
2018-01-14T04:49:06.886Z,24.83
2018-01-14T04:51:34.860Z,28.10
2018-01-14T04:54:02.414Z,24.80
2018-01-14T04:56:29.965Z,26.77
2018-01-14T04:58:57.536Z,26.57
2018-01-14T05:01:25.135Z,26.47
2018-01-14T05:03:53.472Z,26.60
2018-01-14T05:06:21.014Z,24.10
2018-01-14T05:08:48.910Z,24.27
2018-01-14T05:11:16.469Z,23.53
2018-01-14T05:13:44.026Z,24.17
2018-01-14T05:16:11.702Z,25.53
2018-01-14T05:18:40.004Z,24.53
2018-01-14T05:23:42.091Z,25.57
2018-01-14T05:26:10.737Z,25.10
2018-01-14T05:28:38.285Z,23.20
2018-01-14T05:31:05.852Z,23.87
2018-01-14T05:33:33.429Z,25.70
2018-01-14T05:36:01.737Z,23.73
2018-01-14T05:38:29.337Z,23.37
2018-01-14T05:40:56.877Z,25.60
2018-01-14T05:43:24.464Z,23.43
2018-01-14T05:45:52.010Z,24.20
2018-01-14T05:48:19.884Z,24.93
2018-01-14T05:50:47.433Z,24.57
2018-01-14T05:53:14.978Z,24.50
2018-01-14T05:55:42.555Z,25.07
2018-01-14T05:58:10.100Z,24.60
2018-01-14T06:00:37.668Z,23.63
2018-01-14T06:03:05.232Z,23.03
2018-01-14T06:05:33.079Z,23.37
2018-01-14T06:08:00.649Z,23.50
2018-01-14T06:10:28.200Z,24.90
2018-01-14T06:12:55.787Z,26.40
2018-01-14T06:15:23.337Z,23.93
2018-01-14T06:17:51.206Z,22.03
2018-01-14T06:20:18.755Z,23.20
2018-01-14T06:22:46.303Z,24.10
2018-01-14T06:25:13.877Z,24.70
2018-01-14T06:27:41.448Z,24.13
2018-01-14T06:30:09.054Z,24.00
2018-01-14T06:32:36.614Z,22.53
2018-01-14T06:35:04.979Z,25.10
2018-01-14T06:37:32.544Z,24.40
2018-01-14T06:40:01.189Z,24.40
2018-01-14T06:42:28.738Z,24.30
2018-01-14T06:44:56.274Z,24.43
2018-01-14T06:47:23.850Z,24.67
2018-01-14T06:49:51.405Z,22.87
2018-01-14T06:52:18.989Z,24.83
2018-01-14T06:54:46.723Z,22.87
2018-01-14T06:57:14.321Z,24.87
2018-01-14T06:59:41.875Z,26.20
2018-01-14T07:02:09.723Z,23.20
2018-01-14T07:04:37.292Z,25.47
2018-01-14T07:07:04.856Z,24.13
2018-01-14T07:09:32.453Z,24.43
2018-01-14T07:11:59.994Z,21.57
2018-01-14T07:14:28.337Z,23.73
2018-01-14T07:16:55.889Z,25.30
2018-01-14T07:19:23.468Z,22.83
2018-01-14T07:21:51.026Z,22.70
2018-01-14T07:24:18.893Z,24.03
2018-01-14T07:26:46.448Z,24.10
2018-01-14T07:29:14.010Z,25.23
2018-01-14T07:31:41.588Z,24.40
2018-01-14T07:34:09.147Z,24.57
2018-01-14T07:36:36.854Z,23.73
2018-01-14T07:39:04.388Z,24.67
2018-01-14T07:41:32.305Z,23.27
2018-01-14T07:43:59.944Z,26.30
2018-01-14T07:46:27.497Z,27.57
2018-01-14T07:48:55.080Z,26.10
2018-01-14T07:51:22.737Z,27.03
2018-01-14T07:53:50.325Z,28.27
2018-01-14T07:56:17.871Z,26.13
2018-01-14T07:58:45.450Z,27.37
2018-01-14T08:01:13.004Z,26.20
2018-01-14T08:03:40.864Z,27.83
2018-01-14T08:06:08.410Z,27.97
2018-01-14T08:08:35.966Z,26.20
2018-01-14T08:11:03.541Z,25.37
2018-01-14T08:13:31.093Z,24.53
2018-01-14T08:15:58.682Z,25.80
2018-01-14T08:18:26.226Z,23.90
2018-01-14T08:20:54.343Z,25.13
2018-01-14T08:23:22.668Z,24.13
2018-01-14T08:25:50.213Z,25.17
2018-01-14T08:28:17.812Z,26.30
2018-01-14T08:30:45.369Z,26.30
2018-01-14T08:33:13.737Z,26.63
2018-01-14T08:35:41.281Z,25.67
2018-01-14T08:38:09.259Z,26.30
2018-01-14T08:40:36.813Z,26.87
2018-01-14T08:43:04.363Z,25.87
2018-01-14T08:45:31.942Z,23.77
2018-01-14T08:47:59.522Z,23.67
2018-01-14T08:50:27.117Z,25.30
2018-01-14T08:52:54.657Z,25.73
2018-01-14T08:55:23.066Z,26.00
2018-01-14T08:57:50.601Z,26.03
2018-01-14T09:00:18.529Z,25.47
2018-01-14T09:02:46.141Z,27.13
2018-01-14T09:05:13.699Z,24.43
2018-01-14T09:07:41.334Z,25.33
2018-01-14T09:10:08.927Z,23.13
2018-01-14T09:12:36.555Z,22.03
2018-01-14T09:15:04.109Z,25.77
2018-01-14T09:17:32.793Z,21.90
2018-01-14T09:20:00.342Z,25.03
2018-01-14T09:22:27.911Z,23.87
2018-01-14T09:24:55.478Z,23.63
2018-01-14T09:27:23.046Z,22.90
2018-01-14T09:29:51.431Z,21.10
2018-01-14T09:32:18.983Z,24.47
2018-01-14T09:34:47.631Z,23.50
2018-01-14T09:37:15.178Z,23.30
2018-01-14T09:39:42.729Z,20.80
2018-01-14T09:42:10.337Z,21.27
2018-01-14T09:44:38.756Z,24.10
2018-01-14T09:47:06.350Z,19.03
2018-01-14T09:49:33.902Z,21.63
2018-01-14T09:52:01.968Z,23.20
2018-01-14T09:54:29.522Z,22.30
2018-01-14T09:56:57.133Z,22.87
2018-01-14T09:59:25.494Z,26.20
2018-01-14T10:01:53.066Z,19.73
2018-01-14T10:04:21.434Z,20.17
2018-01-14T10:06:48.988Z,21.77
2018-01-14T10:09:16.616Z,20.67
2018-01-14T10:11:44.475Z,16.40
2018-01-14T10:14:12.383Z,20.10
2018-01-14T10:16:39.958Z,19.63
2018-01-14T10:19:07.710Z,21.67
2018-01-14T10:21:36.059Z,19.40
2018-01-14T10:24:03.612Z,20.90
2018-01-14T10:26:31.383Z,21.30
2018-01-14T10:28:58.945Z,21.40
2018-01-14T10:31:26.545Z,19.53
2018-01-14T10:33:54.105Z,21.27
2018-01-14T10:36:22.765Z,21.63
2018-01-14T10:38:50.540Z,20.63
2018-01-14T10:41:18.106Z,20.03
2018-01-14T10:43:46.470Z,18.83
2018-01-14T10:46:15.524Z,20.50
2018-01-14T10:48:43.147Z,20.80
2018-01-14T10:51:11.961Z,20.20
2018-01-14T10:53:39.568Z,19.03
2018-01-14T10:56:07.154Z,19.60
2018-01-14T10:58:35.817Z,21.43
2018-01-14T11:01:03.546Z,19.50
2018-01-14T11:03:31.170Z,19.50
2018-01-14T11:05:59.503Z,19.80
2018-01-14T11:08:27.081Z,17.90
2018-01-14T11:10:54.706Z,19.67
2018-01-14T11:13:22.276Z,19.13
2018-01-14T11:15:50.275Z,21.23
2018-01-14T11:18:17.864Z,20.67
2018-01-14T11:20:45.431Z,19.30
2018-01-14T11:23:13.072Z,18.80
2018-01-14T11:25:41.418Z,19.03
2018-01-14T11:28:09.029Z,21.20
2018-01-14T11:30:37.354Z,21.23
2018-01-14T11:33:05.322Z,13.97
2018-01-14T11:35:32.885Z,19.60
2018-01-14T11:38:00.445Z,22.33
2018-01-14T11:40:28.087Z,21.90
2018-01-14T11:42:55.643Z,16.73
2018-01-14T11:45:23.254Z,17.80
2018-01-14T11:47:50.797Z,19.70
2018-01-14T11:50:18.411Z,20.23
2018-01-14T11:52:45.989Z,19.10
2018-01-14T11:55:15.642Z,18.33
2018-01-14T11:57:43.197Z,16.60
2018-01-14T12:00:10.784Z,20.60
2018-01-14T12:02:38.566Z,20.20
2018-01-14T12:05:06.136Z,20.07
2018-01-14T12:07:33.725Z,18.83
2018-01-14T12:10:02.052Z,18.90
2018-01-14T12:12:29.659Z,21.80
2018-01-14T12:17:31.368Z,18.87
2018-01-14T12:19:59.688Z,18.63
2018-01-14T12:22:27.244Z,20.10
2018-01-14T12:24:54.879Z,19.13
2018-01-14T12:27:22.431Z,19.17
2018-01-14T12:29:50.040Z,20.23
2018-01-14T12:32:17.625Z,18.93
2018-01-14T12:34:45.227Z,19.60
2018-01-14T12:37:12.791Z,18.30
2018-01-14T12:39:40.823Z,20.20
2018-01-14T12:42:09.149Z,19.43
2018-01-14T12:44:36.726Z,19.80
2018-01-14T12:47:04.354Z,21.70
2018-01-14T12:49:31.930Z,20.23
2018-01-14T12:51:59.526Z,21.53
2018-01-14T12:54:27.098Z,22.03
2018-01-14T12:56:54.920Z,20.57
2018-01-14T12:59:22.485Z,21.30
2018-01-14T13:01:50.053Z,21.77
2018-01-14T13:04:17.979Z,22.00
2018-01-14T13:06:45.541Z,21.00
2018-01-14T13:09:13.100Z,21.23
2018-01-14T13:11:40.728Z,21.13
2018-01-14T13:14:08.288Z,20.50
2018-01-14T13:16:36.995Z,15.90
2018-01-14T13:19:04.590Z,17.93
2018-01-14T13:21:32.144Z,19.10
2018-01-14T13:23:59.743Z,19.67
2018-01-14T13:26:28.081Z,14.47
2018-01-14T13:28:55.718Z,16.27
2018-01-14T13:31:23.288Z,19.47
2018-01-14T13:33:51.268Z,19.23
2018-01-14T13:36:18.838Z,20.73
2018-01-14T13:38:46.404Z,22.03
2018-01-14T13:41:14.022Z,18.83
2018-01-14T13:43:41.581Z,20.03
2018-01-14T13:46:10.209Z,19.10
2018-01-14T13:48:37.784Z,21.90
2018-01-14T13:51:06.885Z,21.50
2018-01-14T13:53:34.490Z,21.27
2018-01-14T13:56:08.710Z,19.43
2018-01-14T13:58:36.314Z,17.97
2018-01-14T14:01:03.877Z,20.50
2018-01-14T14:03:31.491Z,16.70
2018-01-14T14:05:59.069Z,18.17
2018-01-14T14:08:26.957Z,18.80
2018-01-14T14:10:54.528Z,19.60
2018-01-14T14:13:22.089Z,17.20
2018-01-14T14:15:50.456Z,15.30
2018-01-14T14:18:18.034Z,17.40
2018-01-14T14:20:45.748Z,17.30
2018-01-14T14:23:13.324Z,21.00
2018-01-14T14:25:41.174Z,18.07
2018-01-14T14:28:08.728Z,18.30
2018-01-14T14:30:36.740Z,18.93
2018-01-14T14:33:05.116Z,21.27
2018-01-14T14:35:32.642Z,19.63
2018-01-14T14:38:00.261Z,20.13
2018-01-14T14:40:27.821Z,23.57
2018-01-14T14:42:55.538Z,21.07
2018-01-14T14:45:23.105Z,20.30
2018-01-14T14:47:50.993Z,21.90
2018-01-14T14:50:18.569Z,21.87
2018-01-14T14:52:46.133Z,21.17
2018-01-14T14:55:14.508Z,21.37
2018-01-14T14:57:42.091Z,21.73
2018-01-14T15:00:09.858Z,21.30
2018-01-14T15:02:37.429Z,22.00
2018-01-14T15:05:05.245Z,20.37
2018-01-14T15:07:32.863Z,20.40
2018-01-14T15:10:00.421Z,20.17
2018-01-14T15:12:28.021Z,19.97
2018-01-14T15:14:55.590Z,20.80
2018-01-14T15:17:23.203Z,22.70
2018-01-14T15:19:50.779Z,22.10
2018-01-14T15:22:18.402Z,19.57
2018-01-14T15:24:45.948Z,22.20
2018-01-14T15:27:14.810Z,22.27
2018-01-14T15:29:42.376Z,20.80
2018-01-14T15:32:09.943Z,20.87
2018-01-14T15:34:38.332Z,21.20
2018-01-14T15:37:06.041Z,22.53
2018-01-14T15:39:33.807Z,24.67
2018-01-14T15:42:01.376Z,21.10
2018-01-14T15:44:29.421Z,22.90
2018-01-14T15:46:56.985Z,21.80
2018-01-14T15:49:24.551Z,23.40
2018-01-14T15:51:52.171Z,20.80
2018-01-14T15:54:19.767Z,22.97
2018-01-14T15:56:47.400Z,23.07
2018-01-14T15:59:15.690Z,23.10
2018-01-14T16:01:43.290Z,21.77
2018-01-14T16:04:10.850Z,22.70
2018-01-14T16:06:38.812Z,22.70
2018-01-14T16:09:06.377Z,22.20
2018-01-14T16:11:33.949Z,23.20
2018-01-14T16:14:01.568Z,21.33
2018-01-14T16:16:29.149Z,24.23
2018-01-14T16:18:56.759Z,22.90
2018-01-14T16:21:25.301Z,26.47
2018-01-14T16:23:53.299Z,24.73
2018-01-14T16:26:21.665Z,22.63
2018-01-14T16:28:49.239Z,22.90
2018-01-14T16:31:17.618Z,23.80
2018-01-14T16:33:45.174Z,25.63
2018-01-14T16:36:13.545Z,24.60
2018-01-14T16:38:41.113Z,24.30
2018-01-14T16:41:12.419Z,23.40
2018-01-14T16:43:40.003Z,22.73
2018-01-14T16:46:08.249Z,25.07
2018-01-14T16:48:35.878Z,25.03
2018-01-14T16:51:05.323Z,23.57
2018-01-14T16:53:33.004Z,26.43
2018-01-14T16:56:00.597Z,26.00
2018-01-14T16:58:28.188Z,22.50
2018-01-14T17:00:55.769Z,23.87
2018-01-14T17:03:23.851Z,25.80
2018-01-14T17:05:51.427Z,24.87
2018-01-14T17:08:19.009Z,25.70
2018-01-14T17:10:47.513Z,24.73
2018-01-14T17:13:15.073Z,25.17
2018-01-14T17:15:42.711Z,27.20
2018-01-14T17:18:10.266Z,27.00
2018-01-14T17:20:38.786Z,28.50
2018-01-14T17:23:06.347Z,27.03
2018-01-14T17:25:34.234Z,26.63
2018-01-14T17:28:01.842Z,26.33
2018-01-14T17:30:29.401Z,24.97
2018-01-14T17:32:56.999Z,24.50
2018-01-14T17:35:24.590Z,25.13
2018-01-14T17:37:52.550Z,27.00
2018-01-14T17:40:20.121Z,28.23
2018-01-14T17:42:47.869Z,26.80
2018-01-14T17:45:15.477Z,26.53
2018-01-14T17:47:43.097Z,26.27
2018-01-14T17:50:11.104Z,25.77
2018-01-14T17:52:38.634Z,27.67
2018-01-14T17:55:06.268Z,25.97
2018-01-14T17:57:36.801Z,26.83
2018-01-14T18:00:04.883Z,26.70
2018-01-14T18:02:32.472Z,25.27
2018-01-14T18:05:00.051Z,25.63
2018-01-14T18:07:27.673Z,26.40
2018-01-14T18:09:55.230Z,26.53
2018-01-14T18:12:23.179Z,27.10
2018-01-14T18:14:50.814Z,25.27
2018-01-14T18:17:25.517Z,24.57
2018-01-14T18:19:53.929Z,26.30
2018-01-14T18:22:21.474Z,25.90
2018-01-14T18:24:49.150Z,29.07
2018-01-14T18:27:16.764Z,23.40
2018-01-14T18:29:45.129Z,25.13
2018-01-14T18:32:12.909Z,24.93
2018-01-14T18:34:40.739Z,27.33
2018-01-14T18:37:08.302Z,27.20
2018-01-14T18:39:35.865Z,28.23
2018-01-14T18:42:04.968Z,25.00
2018-01-14T18:44:32.535Z,25.70
2018-01-14T18:47:00.887Z,25.77
2018-01-14T18:49:28.455Z,26.77
2018-01-14T18:51:56.064Z,27.40
2018-01-14T18:54:23.731Z,25.23
2018-01-14T18:56:52.532Z,26.70
2018-01-14T18:59:20.120Z,26.50
2018-01-14T19:01:47.708Z,25.20
2018-01-14T19:04:15.332Z,26.53
2018-01-14T19:06:43.291Z,24.30
2018-01-14T19:09:10.939Z,25.90
2018-01-14T19:11:38.505Z,25.13
2018-01-14T19:14:06.392Z,24.43
2018-01-14T19:16:33.983Z,23.90
2018-01-14T19:19:01.549Z,25.47
2018-01-14T19:21:29.912Z,24.53
2018-01-14T19:23:57.501Z,26.70
2018-01-14T19:26:25.871Z,27.13
2018-01-14T19:28:53.700Z,23.37
2018-01-14T19:31:21.296Z,24.40
2018-01-14T19:33:49.642Z,23.17
2018-01-14T19:36:17.718Z,24.03
2018-01-14T19:38:45.267Z,24.67
2018-01-14T19:41:12.837Z,26.13
2018-01-14T19:43:40.420Z,26.57
2018-01-14T19:46:08.739Z,27.13
2018-01-14T19:48:36.332Z,24.03
2018-01-14T19:51:03.878Z,25.17
2018-01-14T19:53:31.843Z,25.33
2018-01-14T19:55:59.405Z,26.50
2018-01-14T19:58:27.024Z,26.40
2018-01-14T20:00:54.637Z,24.73
2018-01-14T20:03:22.190Z,24.00
2018-01-14T20:05:50.413Z,25.90
2018-01-14T20:08:18.753Z,23.47
2018-01-14T20:10:46.723Z,29.73
2018-01-14T20:13:14.401Z,23.47
2018-01-14T20:15:41.942Z,24.43
2018-01-14T20:18:09.588Z,24.70
2018-01-14T20:20:37.157Z,26.00
2018-01-14T20:23:04.769Z,23.30
2018-01-14T20:25:32.380Z,22.70
2018-01-14T20:28:00.354Z,25.50
2018-01-14T20:30:27.913Z,24.80
2018-01-14T20:32:56.373Z,24.43
2018-01-14T20:35:23.980Z,24.87
2018-01-14T20:37:52.319Z,24.67
2018-01-14T20:40:19.929Z,24.27
2018-01-14T20:42:47.537Z,23.30
2018-01-14T20:45:15.412Z,23.07
2018-01-14T20:47:43.044Z,25.00
2018-01-14T20:50:10.602Z,23.70
2018-01-14T20:52:38.293Z,23.07
2018-01-14T20:55:05.822Z,23.13
2018-01-14T20:57:33.456Z,23.13
2018-01-14T21:00:01.202Z,23.13
2018-01-14T21:02:29.276Z,24.57
2018-01-14T21:04:57.084Z,22.73
2018-01-14T21:07:24.655Z,21.07
2018-01-14T21:09:52.268Z,20.93
2018-01-14T21:12:20.611Z,16.50
2018-01-14T21:14:48.355Z,20.00
2018-01-14T21:17:15.943Z,16.60
2018-01-14T21:19:43.923Z,12.80
2018-01-14T21:22:12.282Z,11.20
2018-01-14T21:24:40.053Z,17.13
2018-01-14T21:27:07.685Z,9.53
2018-01-14T21:29:35.246Z,8.10
2018-01-14T21:32:02.938Z,8.30
2018-01-14T21:34:30.503Z,8.10
2018-01-14T21:36:58.094Z,7.37
2018-01-14T21:39:25.702Z,8.03
2018-01-14T21:41:54.404Z,7.53
2018-01-14T21:44:21.989Z,7.57
2018-01-14T21:46:50.320Z,8.27
2018-01-14T21:49:17.924Z,8.60
2018-01-14T21:51:46.272Z,7.33
2018-01-14T21:54:13.899Z,7.17
2018-01-14T21:56:41.480Z,10.60
2018-01-14T21:59:09.337Z,9.50
2018-01-14T22:01:36.935Z,7.57
2018-01-14T22:04:04.541Z,7.33
2018-01-14T22:06:32.904Z,10.10
2018-01-14T22:09:00.596Z,8.10
2018-01-14T22:11:28.490Z,9.23
2018-01-14T22:13:56.051Z,8.53
2018-01-14T22:16:25.126Z,7.80
2018-01-14T22:18:52.734Z,8.40
2018-01-14T22:21:21.053Z,7.90
2018-01-14T22:23:48.682Z,8.90
2018-01-14T22:26:17.827Z,9.60
2018-01-14T22:28:45.703Z,8.97
2018-01-14T22:31:13.268Z,9.83
2018-01-14T22:33:40.817Z,9.20
2018-01-14T22:36:08.486Z,8.27
2018-01-14T22:38:36.117Z,9.07
2018-01-14T22:41:03.681Z,9.37
2018-01-14T22:43:31.230Z,8.87
2018-01-14T22:45:59.140Z,10.33
2018-01-14T22:48:26.692Z,8.30
2018-01-14T22:50:54.240Z,8.67
2018-01-14T22:53:21.833Z,9.47
2018-01-14T22:55:49.380Z,9.20
2018-01-14T22:58:17.237Z,9.03
2018-01-14T23:00:44.793Z,10.43
2018-01-14T23:03:12.527Z,10.13
2018-01-14T23:05:40.127Z,22.00
2018-01-14T23:08:10.161Z,10.00
2018-01-14T23:10:37.765Z,10.53
2018-01-14T23:13:05.321Z,11.30
2018-01-14T23:15:33.256Z,11.77
2018-01-14T23:18:00.811Z,11.20
2018-01-14T23:20:29.302Z,11.03
2018-01-14T23:22:57.711Z,10.90
2018-01-14T23:25:25.277Z,11.03
2018-01-14T23:27:53.479Z,10.70
2018-01-14T23:30:21.269Z,10.37
2018-01-14T23:32:48.868Z,11.70
2018-01-14T23:35:16.462Z,10.27
2018-01-14T23:37:44.036Z,10.87
2018-01-14T23:40:11.757Z,11.80
2018-01-14T23:42:39.315Z,12.30
2018-01-14T23:45:07.293Z,12.50
2018-01-14T23:47:34.862Z,10.60
2018-01-14T23:50:02.400Z,11.30
2018-01-14T23:52:29.969Z,12.40
2018-01-14T23:54:57.515Z,11.50
2018-01-14T23:57:25.118Z,12.40
2018-01-14T23:59:52.668Z,11.80
